Time;durP1;ratioP1;P1;durP2;ratioP2;P2;SDS_P1;SDS_P2;PMS_P1;PMS_P2;Temp;Humidity;BMP_temperature;BMP_pressure;BME280_temperature;BME280_humidity;BME280_pressure;Samples;Min_cycle;Max_cycle;Signal;HPM_P1;HPM_P2
2023/03/27 00:04:42;;;;;;;;;;;;;;;19.83;35.02;94365.91;10482354;28;2085;-63
2023/03/27 00:09:43;;;;;;;;;;;;;;;19.82;35.15;94367.78;10481185;28;2087;-63
2023/03/27 00:14:45;;;;;;;;;;;;;;;19.81;34.90;94373.31;10471884;28;2141;-63
2023/03/27 00:19:45;;;;;;;;;;;;;;;19.79;34.88;94376.25;10481292;28;2091;-63
2023/03/27 00:24:46;;;;;;;;;;;;;;;19.78;34.90;94373.94;10482549;28;1944;-63
2023/03/27 00:29:56;;;;;;;;;;;;;;;19.76;34.86;94373.44;10471613;28;1973;-63
2023/03/27 00:34:57;;;;;;;;;;;;;;;19.75;35.08;94379.78;10479558;28;1971;-63
2023/03/27 00:39:58;;;;;;;;;;;;;;;19.73;35.16;94374.03;10479780;28;1943;-63
2023/03/27 00:44:58;;;;;;;;;;;;;;;19.72;34.87;94375.13;10453793;28;2123;-63
2023/03/27 00:50:00;;;;;;;;;;;;;;;19.71;34.98;94370.94;10443531;28;2033;-63
2023/03/27 00:55:02;;;;;;;;;;;;;;;19.70;34.81;94377.28;10461723;28;1953;-63
2023/03/27 01:00:08;;;;;;;;;;;;;;;19.67;34.93;94377.88;10477554;28;2011;-63
2023/03/27 01:05:08;;;;;;;;;;;;;;;19.67;34.98;94381.28;10464569;28;2117;-63
2023/03/27 01:10:09;;;;;;;;;;;;;;;19.66;34.94;94376.34;10465738;28;2088;-63
2023/03/27 01:15:32;;;;;;;;;;;;;;;19.65;34.90;94377.41;10484501;28;2102;-63
2023/03/27 01:20:45;;;;;;;;;;;;;;;19.63;34.83;94380.31;10478800;28;1976;-63
2023/03/27 01:25:47;;;;;;;;;;;;;;;19.63;34.71;94377.69;10445910;28;2003;-64
2023/03/27 01:31:01;;;;;;;;;;;;;;;19.60;34.92;94382.78;10479607;28;1992;-63
2023/03/27 01:36:05;;;;;;;;;;;;;;;19.59;34.72;94378.59;10477730;28;2114;-63
2023/03/27 01:41:10;;;;;;;;;;;;;;;19.58;34.56;94383.06;10472669;28;2003;-63
2023/03/27 01:46:20;;;;;;;;;;;;;;;19.57;34.79;94362.34;10475678;28;1945;-63
2023/03/27 01:51:20;;;;;;;;;;;;;;;19.56;34.69;94371.31;10462076;28;2024;-63
2023/03/27 01:56:30;;;;;;;;;;;;;;;19.55;34.81;94388.16;10490992;28;1761;-63
2023/03/27 02:01:35;;;;;;;;;;;;;;;19.54;34.49;94389.25;10465655;28;1752;-63
2023/03/27 02:06:37;;;;;;;;;;;;;;;19.54;34.50;94399.75;10470867;28;1994;-62
2023/03/27 02:11:46;;;;;;;;;;;;;;;19.52;34.46;94399.25;10461045;28;2011;-63
2023/03/27 02:16:47;;;;;;;;;;;;;;;19.51;34.70;94405.59;10480197;28;2098;-63
2023/03/27 02:21:48;;;;;;;;;;;;;;;19.48;34.63;94401.72;10456269;28;2106;-63
2023/03/27 02:26:50;;;;;;;;;;;;;;;19.47;34.69;94400.91;10444641;28;2113;-63
2023/03/27 02:31:57;;;;;;;;;;;;;;;19.46;34.74;94406.50;10476812;28;1976;-63
2023/03/27 02:37:18;;;;;;;;;;;;;;;19.44;34.46;94406.78;10468695;28;1956;-63
2023/03/27 02:42:30;;;;;;;;;;;;;;;19.45;34.78;94418.84;10482896;28;2095;-62
2023/03/27 02:47:36;;;;;;;;;;;;;;;19.43;34.65;94425.50;10485174;28;1905;-62
2023/03/27 02:52:43;;;;;;;;;;;;;;;19.42;34.56;94432.59;10495705;28;1955;-62
2023/03/27 02:57:45;;;;;;;;;;;;;;;19.42;34.62;94442.31;10465472;28;2070;-62
2023/03/27 03:02:46;;;;;;;;;;;;;;;19.40;34.55;94434.75;10470730;28;2039;-62
2023/03/27 03:07:46;;;;;;;;;;;;;;;19.39;34.50;94450.81;10465194;28;1972;-62
2023/03/27 03:12:47;;;;;;;;;;;;;;;19.38;34.54;94447.41;10461536;28;1956;-61
2023/03/27 03:17:49;;;;;;;;;;;;;;;19.37;34.66;94443.19;10481469;28;1908;-62
2023/03/27 03:22:49;;;;;;;;;;;;;;;19.37;34.68;94447.69;10478393;28;2030;-62
2023/03/27 03:27:49;;;;;;;;;;;;;;;19.35;34.53;94458.50;10486063;28;1995;-62
2023/03/27 03:32:49;;;;;;;;;;;;;;;19.34;34.78;94471.94;10461890;28;2069;-62
2023/03/27 03:37:51;;;;;;;;;;;;;;;19.34;34.70;94471.94;10458461;28;2156;-61
2023/03/27 03:42:52;;;;;;;;;;;;;;;19.33;34.56;94484.28;10456792;28;1983;-63
2023/03/27 03:47:52;;;;;;;;;;;;;;;19.31;34.62;94481.16;10467114;28;2066;-62
2023/03/27 03:52:53;;;;;;;;;;;;;;;19.31;34.62;94490.88;10482717;28;1972;-62
2023/03/27 03:57:54;;;;;;;;;;;;;;;19.30;34.77;94500.63;10481809;28;2087;-61
2023/03/27 04:02:55;;;;;;;;;;;;;;;19.28;34.64;94502.78;10463891;28;1995;-62
2023/03/27 04:07:58;;;;;;;;;;;;;;;19.27;34.80;94522.22;10468315;28;2055;-62
2023/03/27 04:12:58;;;;;;;;;;;;;;;19.32;34.78;94519.50;10483472;28;1953;-61
2023/03/27 04:17:58;;;;;;;;;;;;;;;19.37;34.79;94524.66;10492953;28;1959;-62
2023/03/27 04:23:01;;;;;;;;;;;;;;;19.43;34.56;94525.34;10482826;28;1967;-62
2023/03/27 04:28:02;;;;;;;;;;;;;;;19.49;34.66;94527.56;10478550;28;1967;-62
2023/03/27 04:33:03;;;;;;;;;;;;;;;19.56;34.49;94540.28;10458201;28;1960;-61
2023/03/27 04:38:03;;;;;;;;;;;;;;;19.66;34.38;94552.47;10481012;28;1995;-62
2023/03/27 04:43:04;;;;;;;;;;;;;;;19.71;34.41;94568.13;10483430;28;1961;-62
2023/03/27 04:48:04;;;;;;;;;;;;;;;19.77;34.25;94590.59;10484097;28;2031;-61
2023/03/27 04:53:05;;;;;;;;;;;;;;;19.81;34.10;94594.19;10475378;28;2092;-61
2023/03/27 04:58:07;;;;;;;;;;;;;;;19.85;34.13;94610.94;10483121;28;1977;-62
2023/03/27 05:03:07;;;;;;;;;;;;;;;19.89;34.10;94627.66;10476376;28;1964;-61
2023/03/27 05:08:09;;;;;;;;;;;;;;;19.93;34.10;94649.66;10478964;28;2016;-61
2023/03/27 05:13:09;;;;;;;;;;;;;;;19.97;34.21;94658.56;10476103;28;2333;-61
2023/03/27 05:18:10;;;;;;;;;;;;;;;20.01;33.83;94677.94;10470747;28;1981;-63
2023/03/27 05:23:11;;;;;;;;;;;;;;;20.02;33.77;94692.63;10480784;28;2036;-62
2023/03/27 05:28:12;;;;;;;;;;;;;;;20.06;33.74;94701.50;10462394;28;1960;-61
2023/03/27 05:33:12;;;;;;;;;;;;;;;20.09;33.88;94724.59;10445985;28;2047;-62
2023/03/27 05:38:13;;;;;;;;;;;;;;;20.12;33.73;94742.41;10472279;28;2267;-63
2023/03/27 05:43:13;;;;;;;;;;;;;;;20.14;33.74;94753.41;10478552;28;1988;-63
2023/03/27 05:48:14;;;;;;;;;;;;;;;20.15;33.83;94774.16;10472595;28;2051;-63
2023/03/27 05:53:15;;;;;;;;;;;;;;;20.19;33.99;94792.78;10458054;28;2034;-63
2023/03/27 05:58:16;;;;;;;;;;;;;;;20.21;33.90;94815.13;10473139;28;1968;-63
2023/03/27 06:03:19;;;;;;;;;;;;;;;20.25;33.91;94836.38;10469127;28;1936;-63
2023/03/27 06:08:19;;;;;;;;;;;;;;;20.28;33.65;94851.56;10478463;28;1902;-60
2023/03/27 06:13:20;;;;;;;;;;;;;;;20.32;33.88;94876.22;10473572;28;1926;-61
2023/03/27 06:18:20;;;;;;;;;;;;;;;20.34;33.91;94886.50;10478499;28;1943;-62
2023/03/27 06:23:21;;;;;;;;;;;;;;;20.35;33.89;94907.25;10480736;28;1963;-61
2023/03/27 06:28:21;;;;;;;;;;;;;;;20.36;34.13;94929.84;10468197;28;2014;-60
2023/03/27 06:33:24;;;;;;;;;;;;;;;20.40;34.22;94941.38;10457401;28;2011;-60
2023/03/27 06:38:26;;;;;;;;;;;;;;;20.41;34.31;94955.31;10466588;28;1964;-61
2023/03/27 06:43:27;;;;;;;;;;;;;;;20.41;34.19;94968.47;10451711;28;1999;-59
2023/03/27 06:48:28;;;;;;;;;;;;;;;20.45;34.30;94988.66;10457169;28;1921;-59
2023/03/27 06:53:29;;;;;;;;;;;;;;;20.50;34.49;95006.22;10466977;28;2001;-60
2023/03/27 06:58:30;;;;;;;;;;;;;;;20.54;34.68;95018.53;10466144;28;1963;-59
2023/03/27 07:03:31;;;;;;;;;;;;;;;20.57;34.52;95033.72;10461075;28;1927;-60
2023/03/27 07:08:31;;;;;;;;;;;;;;;20.62;34.28;95041.53;10459763;28;1975;-59
2023/03/27 07:13:32;;;;;;;;;;;;;;;20.64;34.56;95054.41;10467419;28;1936;-59
2023/03/27 07:18:33;;;;;;;;;;;;;;;20.64;34.25;95075.47;10469268;28;1929;-59
2023/03/27 07:23:35;;;;;;;;;;;;;;;20.64;34.41;95081.53;10470454;28;2031;-59
2023/03/27 07:28:37;;;;;;;;;;;;;;;20.65;34.43;95108.66;10468259;28;2013;-59
2023/03/27 07:33:37;;;;;;;;;;;;;;;20.62;34.30;95114.47;10470557;28;1949;-59
2023/03/27 07:38:38;;;;;;;;;;;;;;;20.61;34.44;95134.75;10471187;28;2122;-61
2023/03/27 07:43:39;;;;;;;;;;;;;;;20.59;34.56;95144.81;10471880;28;1964;-61
2023/03/27 07:48:40;;;;;;;;;;;;;;;20.58;34.67;95156.41;10467635;28;2022;-61
2023/03/27 07:53:40;;;;;;;;;;;;;;;20.55;34.40;95164.09;10466206;28;1977;-60
2023/03/27 07:58:41;;;;;;;;;;;;;;;20.53;34.60;95180.19;10464065;28;2154;-60
2023/03/27 08:03:42;;;;;;;;;;;;;;;20.49;34.54;95194.19;10454173;28;1964;-59
2023/03/27 08:08:42;;;;;;;;;;;;;;;20.46;34.77;95211.38;10460933;28;1941;-60
2023/03/27 08:13:43;;;;;;;;;;;;;;;20.43;34.58;95225.09;10462318;28;2066;-60
2023/03/27 08:18:45;;;;;;;;;;;;;;;20.41;34.46;95229.84;10464101;28;1993;-59
2023/03/27 08:23:46;;;;;;;;;;;;;;;20.38;34.49;95243.56;10463847;28;1964;-60
2023/03/27 08:28:46;;;;;;;;;;;;;;;20.37;34.54;95260.44;10462812;28;1972;-60
2023/03/27 08:33:47;;;;;;;;;;;;;;;20.35;34.67;95274.94;10465849;28;1996;-60
2023/03/27 08:38:48;;;;;;;;;;;;;;;20.36;34.49;95287.06;10465241;28;1916;-60
2023/03/27 08:43:49;;;;;;;;;;;;;;;20.38;34.39;95301.47;10467464;28;1912;-60
2023/03/27 08:48:51;;;;;;;;;;;;;;;20.45;34.36;95320.38;10458901;28;1999;-60
2023/03/27 08:54:03;;;;;;;;;;;;;;;20.52;34.14;95330.56;10445425;28;1995;-60
2023/03/27 08:59:04;;;;;;;;;;;;;;;20.56;34.21;95340.25;10431337;28;1965;-60
2023/03/27 09:04:11;;;;;;;;;;;;;;;20.61;34.05;95348.06;10450025;28;1943;-60
2023/03/27 09:09:26;;;;;;;;;;;;;;;20.64;34.05;95354.63;10460740;28;1968;-60
2023/03/27 09:14:32;;;;;;;;;;;;;;;20.68;34.10;95366.94;10470728;28;2003;-60
2023/03/27 09:19:51;;;;;;;;;;;;;;;20.72;34.08;95361.88;10459485;28;1972;-60
2023/03/27 09:24:53;;;;;;;;;;;;;;;20.77;33.85;95375.75;10472501;28;1963;-63
2023/03/27 09:30:07;;;;;;;;;;;;;;;20.77;33.27;95383.66;10469213;28;2008;-61
2023/03/27 09:35:17;;;;;;;;;;;;;;;20.78;33.56;95395.78;10468613;28;2019;-62
2023/03/27 09:40:22;;;;;;;;;;;;;;;20.80;33.69;95406.81;10437093;28;1933;-64
2023/03/27 09:45:22;;;;;;;;;;;;;;;20.83;33.66;95416.03;10464182;28;2068;-64
2023/03/27 09:50:27;;;;;;;;;;;;;;;20.80;33.84;95414.72;10461272;28;2084;-62
2023/03/27 09:55:33;;;;;;;;;;;;;;;20.83;33.54;95416.03;10464974;28;1972;-63
2023/03/27 10:00:34;;;;;;;;;;;;;;;20.80;33.41;95427.09;10468108;28;1970;-63
2023/03/27 10:05:34;;;;;;;;;;;;;;;20.81;33.08;95437.34;10466756;28;1968;-63
2023/03/27 10:10:40;;;;;;;;;;;;;;;20.80;33.00;95438.44;10463290;28;1973;-63
2023/03/27 10:15:41;;;;;;;;;;;;;;;20.83;33.30;95453.69;10462216;28;1924;-63
2023/03/27 10:20:52;;;;;;;;;;;;;;;20.81;33.58;95455.78;10466428;28;1932;-63
2023/03/27 10:25:52;;;;;;;;;;;;;;;20.82;33.37;95467.91;10434907;28;2160;-62
2023/03/27 10:31:00;;;;;;;;;;;;;;;20.87;34.35;95470.50;10425924;28;2001;-60
2023/03/27 10:36:03;;;;;;;;;;;;;;;20.92;33.76;95480.16;10468900;28;1949;-60
2023/03/27 10:41:07;;;;;;;;;;;;;;;20.98;34.21;95492.22;10452449;28;2118;-60
2023/03/27 10:46:27;;;;;;;;;;;;;;;21.00;34.46;95506.69;10431341;28;1946;-58
2023/03/27 10:51:32;;;;;;;;;;;;;;;21.06;34.52;95505.59;10457275;28;2123;-57
2023/03/27 10:56:44;;;;;;;;;;;;;;;21.11;34.18;95522.41;10462585;28;1998;-57
2023/03/27 11:01:52;;;;;;;;;;;;;;;21.12;34.42;95526.63;10460163;28;1952;-57
2023/03/27 11:06:56;;;;;;;;;;;;;;;21.15;34.10;95540.03;10464440;28;2013;-58
2023/03/27 11:12:08;;;;;;;;;;;;;;;21.18;34.14;95543.94;10457760;28;2068;-58
2023/03/27 11:17:11;;;;;;;;;;;;;;;21.19;34.24;95540.22;10459032;28;2034;-58
2023/03/27 11:22:19;;;;;;;;;;;;;;;21.21;33.73;95548.63;10470030;28;1923;-58
2023/03/27 11:27:35;;;;;;;;;;;;;;;21.22;33.03;95550.22;10467676;28;1945;-58
2023/03/27 11:32:38;;;;;;;;;;;;;;;21.22;32.36;95545.75;10467904;28;1979;-59
2023/03/27 11:37:45;;;;;;;;;;;;;;;21.27;31.75;95566.00;10470935;28;1968;-58
2023/03/27 11:42:46;;;;;;;;;;;;;;;21.26;32.69;95556.50;10439833;28;1949;-60
2023/03/27 11:47:46;;;;;;;;;;;;;;;21.29;32.67;95554.06;10453044;28;2075;-61
2023/03/27 11:53:05;;;;;;;;;;;;;;;21.31;32.60;95556.44;10472213;28;2016;-60
2023/03/27 11:58:18;;;;;;;;;;;;;;;21.36;33.77;95551.91;10468747;28;1941;-59
2023/03/27 12:03:21;;;;;;;;;;;;;;;21.38;34.36;95575.34;10471618;28;1997;-58
2023/03/27 12:08:23;;;;;;;;;;;;;;;21.41;33.78;95585.34;10467791;28;2044;-58
2023/03/27 12:13:28;;;;;;;;;;;;;;;21.41;33.94;95572.91;10473558;28;2037;-58
2023/03/27 12:18:40;;;;;;;;;;;;;;;21.44;33.98;95575.00;10466408;28;2034;-57
2023/03/27 12:23:41;;;;;;;;;;;;;;;21.42;34.40;95573.69;10465266;28;2112;-55
2023/03/27 12:28:57;;;;;;;;;;;;;;;21.43;33.98;95583.19;10465312;28;2084;-58
2023/03/27 12:34:04;;;;;;;;;;;;;;;21.40;33.92;95589.03;10472219;28;2021;-57
2023/03/27 12:39:11;;;;;;;;;;;;;;;21.44;33.60;95595.28;10456140;28;2077;-60
2023/03/27 12:44:12;;;;;;;;;;;;;;;21.44;33.53;95600.56;10462809;28;2004;-59
2023/03/27 12:49:13;;;;;;;;;;;;;;;21.43;33.26;95610.31;10469102;28;2057;-58
2023/03/27 12:54:13;;;;;;;;;;;;;;;21.44;33.17;95595.28;10467154;28;2120;-58
2023/03/27 12:59:17;;;;;;;;;;;;;;;21.45;33.04;95607.44;10472717;28;1996;-57
2023/03/27 13:04:22;;;;;;;;;;;;;;;21.45;33.12;95604.78;10449951;28;2098;-58
2023/03/27 13:09:22;;;;;;;;;;;;;;;21.46;33.16;95603.72;10463427;28;2199;-58
2023/03/27 13:14:42;;;;;;;;;;;;;;;21.44;33.17;95619.03;10462727;28;1968;-58
2023/03/27 13:19:51;;;;;;;;;;;;;;;21.47;33.56;95626.41;10461991;28;2008;-57
2023/03/27 13:24:52;;;;;;;;;;;;;;;21.51;33.68;95635.31;10460049;28;2040;-57
2023/03/27 13:29:52;;;;;;;;;;;;;;;21.53;33.56;95633.19;10465437;28;2049;-57
2023/03/27 13:35:12;;;;;;;;;;;;;;;21.57;33.78;95636.81;10454413;28;2100;-57
2023/03/27 13:40:19;;;;;;;;;;;;;;;21.57;33.62;95644.72;10463592;28;2089;-58
2023/03/27 13:45:31;;;;;;;;;;;;;;;21.55;33.94;95641.59;10466772;28;2001;-57
2023/03/27 13:50:35;;;;;;;;;;;;;;;21.58;34.02;95649.72;10469311;28;2100;-58
2023/03/27 13:55:35;;;;;;;;;;;;;;;21.56;33.92;95649.22;10474341;28;2405;-57
2023/03/27 14:00:55;;;;;;;;;;;;;;;21.54;34.07;95651.34;10465793;28;2079;-58
2023/03/27 14:06:14;;;;;;;;;;;;;;;21.52;34.41;95664.03;10460969;28;2041;-59
2023/03/27 14:11:34;;;;;;;;;;;;;;;21.49;34.45;95675.16;10449823;28;2085;-58
2023/03/27 14:16:43;;;;;;;;;;;;;;;21.46;34.48;95691.53;10463327;28;1986;-58
2023/03/27 14:21:48;;;;;;;;;;;;;;;21.41;34.88;95690.81;10464606;28;2078;-58
2023/03/27 14:26:50;;;;;;;;;;;;;;;21.39;35.01;95721.94;10473579;28;1970;-59
2023/03/27 14:31:50;;;;;;;;;;;;;;;21.37;34.93;95731.97;10465448;28;2131;-59
2023/03/27 14:36:51;;;;;;;;;;;;;;;21.35;34.76;95747.28;10470643;28;2003;-57
2023/03/27 14:41:53;;;;;;;;;;;;;;;21.30;34.51;95753.41;10475011;28;2089;-58
2023/03/27 14:46:58;;;;;;;;;;;;;;;21.25;34.53;95750.78;10471187;28;2081;-60
2023/03/27 14:51:59;;;;;;;;;;;;;;;21.22;34.61;95745.28;10454594;28;1993;-59
2023/03/27 14:57:00;;;;;;;;;;;;;;;21.20;34.50;95747.44;10476295;28;2060;-60
2023/03/27 15:02:04;;;;;;;;;;;;;;;21.18;34.49;95741.66;10473417;28;2123;-60
2023/03/27 15:07:17;;;;;;;;;;;;;;;21.15;34.48;95742.19;10457572;28;1996;-60
2023/03/27 15:12:17;;;;;;;;;;;;;;;21.11;34.49;95751.72;10472297;28;2035;-61
2023/03/27 15:17:18;;;;;;;;;;;;;;;21.10;34.40;95763.34;10453302;28;2070;-58
2023/03/27 15:22:35;;;;;;;;;;;;;;;21.05;34.29;95754.41;10462690;28;2059;-58
2023/03/27 15:27:37;;;;;;;;;;;;;;;21.03;34.57;95763.63;10458529;28;2060;-59
2023/03/27 15:32:41;;;;;;;;;;;;;;;21.01;34.31;95771.81;10471437;28;2005;-58
2023/03/27 15:37:51;;;;;;;;;;;;;;;20.97;34.46;95765.50;10469684;28;2250;-59
2023/03/27 15:42:52;;;;;;;;;;;;;;;20.93;34.74;95769.75;10457865;28;2075;-61
2023/03/27 15:48:00;;;;;;;;;;;;;;;20.91;34.95;95771.88;10471141;28;1976;-61
2023/03/27 15:53:02;;;;;;;;;;;;;;;20.88;34.83;95776.88;10471599;28;2001;-62
2023/03/27 15:58:12;;;;;;;;;;;;;;;20.83;34.67;95779.56;10469531;28;2066;-61
2023/03/27 16:03:18;;;;;;;;;;;;;;;20.78;34.78;95796.19;10469101;28;2031;-61
2023/03/27 16:08:26;;;;;;;;;;;;;;;20.73;34.68;95801.47;10467650;28;2028;-61
2023/03/27 16:13:33;;;;;;;;;;;;;;;20.70;34.63;95806.53;10472877;28;2193;-61
2023/03/27 16:18:35;;;;;;;;;;;;;;;20.65;34.86;95807.34;10466809;28;2048;-61
2023/03/27 16:23:36;;;;;;;;;;;;;;;20.60;34.80;95812.63;10467321;28;2205;-61
2023/03/27 16:28:36;;;;;;;;;;;;;;;20.56;34.58;95814.25;10468445;28;2107;-61
2023/03/27 16:33:36;;;;;;;;;;;;;;;20.53;34.85;95814.78;10444543;28;2056;-61
2023/03/27 16:38:39;;;;;;;;;;;;;;;20.50;34.68;95822.44;10466625;28;2124;-61
2023/03/27 16:43:40;;;;;;;;;;;;;;;20.47;34.66;95846.66;10460810;28;2066;-59
2023/03/27 16:48:40;;;;;;;;;;;;;;;20.47;34.72;95889.59;10453018;28;2060;-59
2023/03/27 16:53:40;;;;;;;;;;;;;;;20.47;34.83;95876.41;10469275;28;2001;-60
2023/03/27 16:58:41;;;;;;;;;;;;;;;20.46;34.80;95885.41;10468606;28;2049;-59
2023/03/27 17:03:42;;;;;;;;;;;;;;;20.46;34.92;95888.03;10464813;28;2218;-59
2023/03/27 17:08:44;;;;;;;;;;;;;;;20.45;35.02;95886.44;10472327;28;1988;-59
2023/03/27 17:13:44;;;;;;;;;;;;;;;20.46;34.76;95892.50;10469419;28;2024;-59
2023/03/27 17:18:45;;;;;;;;;;;;;;;20.42;34.79;95894.88;10465522;28;2047;-59
2023/03/27 17:23:47;;;;;;;;;;;;;;;20.40;34.55;95907.53;10466310;28;2041;-59
2023/03/27 17:28:48;;;;;;;;;;;;;;;20.38;34.85;95914.88;10462376;28;2064;-59
2023/03/27 17:33:48;;;;;;;;;;;;;;;20.36;34.46;95922.25;10466247;28;2096;-62
2023/03/27 17:38:48;;;;;;;;;;;;;;;20.36;34.55;95924.91;10466756;28;2027;-62
2023/03/27 17:43:50;;;;;;;;;;;;;;;20.34;34.42;95945.44;10466081;28;2101;-61
2023/03/27 17:48:51;;;;;;;;;;;;;;;20.31;34.46;95953.09;10467169;28;2007;-60
2023/03/27 17:53:51;;;;;;;;;;;;;;;20.28;34.56;95949.13;10461621;28;1980;-60
2023/03/27 17:58:52;;;;;;;;;;;;;;;20.27;34.19;95960.72;10469200;28;2044;-60
2023/03/27 18:03:54;;;;;;;;;;;;;;;20.23;34.59;95949.97;10448595;28;2077;-61
2023/03/27 18:08:54;;;;;;;;;;;;;;;20.22;34.59;95943.09;10461460;28;2036;-60
2023/03/27 18:13:55;;;;;;;;;;;;;;;20.20;34.33;95947.84;10447074;28;2095;-61
2023/03/27 18:18:56;;;;;;;;;;;;;;;20.19;34.17;95951.53;10464231;28;2166;-61
2023/03/27 18:23:58;;;;;;;;;;;;;;;20.17;34.51;95964.13;10464342;28;2075;-61
2023/03/27 18:28:59;;;;;;;;;;;;;;;20.17;34.37;95960.72;10463136;28;1982;-60
2023/03/27 18:33:59;;;;;;;;;;;;;;;20.15;34.26;95968.09;10463104;28;2159;-59
2023/03/27 18:39:00;;;;;;;;;;;;;;;20.13;34.29;95997.28;10464209;28;1971;-61
2023/03/27 18:44:01;;;;;;;;;;;;;;;20.12;34.01;95982.56;10466167;28;2061;-61
2023/03/27 18:49:01;;;;;;;;;;;;;;;20.12;34.15;95984.41;10467799;28;2100;-60
2023/03/27 18:54:02;;;;;;;;;;;;;;;20.13;34.11;95978.09;10463676;28;2216;-61
2023/03/27 18:59:03;;;;;;;;;;;;;;;20.14;33.92;95979.66;10461004;28;2028;-61
2023/03/27 19:04:04;;;;;;;;;;;;;;;20.15;34.14;95994.41;10465068;28;2000;-62
2023/03/27 19:09:06;;;;;;;;;;;;;;;20.17;33.77;96000.97;10466471;28;2030;-62
2023/03/27 19:14:06;;;;;;;;;;;;;;;20.17;33.85;96002.84;10451801;28;2084;-60
2023/03/27 19:19:07;;;;;;;;;;;;;;;20.19;33.98;95998.91;10454408;28;2104;-63
2023/03/27 19:24:09;;;;;;;;;;;;;;;20.20;33.93;95994.44;10470323;28;1977;-61
2023/03/27 19:29:11;;;;;;;;;;;;;;;20.21;33.63;95998.66;10439649;28;2065;-62
2023/03/27 19:34:12;;;;;;;;;;;;;;;20.22;33.91;96008.09;10467029;28;2087;-60
2023/03/27 19:39:12;;;;;;;;;;;;;;;20.26;33.68;96014.44;10473800;28;2052;-59
2023/03/27 19:44:14;;;;;;;;;;;;;;;20.27;33.71;96018.66;10466142;28;2051;-59
2023/03/27 19:49:15;;;;;;;;;;;;;;;20.26;33.43;96022.31;10451196;28;2063;-59
2023/03/27 19:54:15;;;;;;;;;;;;;;;20.25;33.61;96015.50;10453796;28;2072;-59
2023/03/27 19:59:16;;;;;;;;;;;;;;;20.25;33.37;96020.75;10457377;28;2284;-59
2023/03/27 20:04:16;;;;;;;;;;;;;;;20.23;33.46;96018.41;10470644;28;2117;-59
2023/03/27 20:09:17;;;;;;;;;;;;;;;20.22;33.48;96023.91;10469674;28;2127;-59
2023/03/27 20:14:19;;;;;;;;;;;;;;;20.18;33.41;96022.81;10473096;28;2032;-57
2023/03/27 20:19:19;;;;;;;;;;;;;;;20.14;33.55;96027.84;10473001;28;2037;-59
2023/03/27 20:24:20;;;;;;;;;;;;;;;20.10;33.53;96024.16;10476354;28;2132;-60
2023/03/27 20:29:21;;;;;;;;;;;;;;;20.07;33.54;96019.41;10472506;28;2028;-60
2023/03/27 20:34:22;;;;;;;;;;;;;;;20.04;33.68;96017.31;10474218;28;2052;-59
2023/03/27 20:39:26;;;;;;;;;;;;;;;20.00;33.67;96020.72;10481578;28;1940;-63
2023/03/27 20:44:33;;;;;;;;;;;;;;;19.97;33.82;96023.91;10464669;28;2098;-62
2023/03/27 20:49:34;;;;;;;;;;;;;;;19.95;33.85;96025.97;10461788;28;1955;-61
2023/03/27 20:54:46;;;;;;;;;;;;;;;19.92;33.81;96024.69;10482819;28;1953;-61
2023/03/27 20:59:47;;;;;;;;;;;;;;;19.90;33.61;96018.09;10463524;28;1978;-62
2023/03/27 21:04:47;;;;;;;;;;;;;;;19.86;33.86;96023.09;10483286;28;2020;-61
2023/03/27 21:09:48;;;;;;;;;;;;;;;19.81;33.79;96020.44;10484480;28;1987;-62
2023/03/27 21:14:48;;;;;;;;;;;;;;;19.81;33.81;96023.09;10474544;28;2012;-61
2023/03/27 21:19:48;;;;;;;;;;;;;;;19.79;33.83;96032.28;10476552;28;1920;-61
2023/03/27 21:24:48;;;;;;;;;;;;;;;19.75;33.70;96039.91;10473276;28;1968;-61
2023/03/27 21:29:49;;;;;;;;;;;;;;;19.72;33.86;96032.53;10471706;28;1960;-61
2023/03/27 21:34:49;;;;;;;;;;;;;;;19.69;33.86;96034.91;10479298;28;1961;-62
2023/03/27 21:39:59;;;;;;;;;;;;;;;19.68;33.79;96035.97;10472958;28;1926;-61
2023/03/27 21:45:01;;;;;;;;;;;;;;;19.65;33.74;96047.00;10480328;28;2083;-61
2023/03/27 21:50:01;;;;;;;;;;;;;;;19.62;33.60;96053.56;10491176;28;2020;-61
2023/03/27 21:55:02;;;;;;;;;;;;;;;19.60;33.77;96060.16;10480417;28;2087;-62
2023/03/27 22:00:03;;;;;;;;;;;;;;;19.58;33.69;96067.50;10456362;28;1970;-61
2023/03/27 22:05:05;;;;;;;;;;;;;;;19.55;33.63;96070.63;10483136;28;2013;-61
2023/03/27 22:10:06;;;;;;;;;;;;;;;19.54;33.62;96079.59;10484721;28;1996;-60
2023/03/27 22:15:07;;;;;;;;;;;;;;;19.53;33.60;96081.41;10464321;28;2001;-61
2023/03/27 22:20:08;;;;;;;;;;;;;;;19.48;33.49;96090.06;10491456;28;2055;-61
2023/03/27 22:25:18;;;;;;;;;;;;;;;19.46;33.56;96092.16;10487157;28;1959;-61
2023/03/27 22:30:19;;;;;;;;;;;;;;;19.46;33.39;96101.88;10481428;28;2287;-61
2023/03/27 22:35:19;;;;;;;;;;;;;;;19.44;33.41;96094.28;10478003;28;1981;-61
2023/03/27 22:40:20;;;;;;;;;;;;;;;19.42;33.39;96095.56;10470611;28;1976;-61
2023/03/27 22:45:21;;;;;;;;;;;;;;;19.39;33.50;96111.88;10473511;28;1950;-61
2023/03/27 22:50:28;;;;;;;;;;;;;;;19.37;33.41;96120.00;10488828;28;2053;-61
2023/03/27 22:55:28;;;;;;;;;;;;;;;19.35;33.42;96119.47;10488171;28;2123;-62
2023/03/27 23:00:29;;;;;;;;;;;;;;;19.33;33.33;96126.81;10487533;28;1930;-60
2023/03/27 23:05:40;;;;;;;;;;;;;;;19.32;33.18;96138.34;10490560;28;2154;-62
2023/03/27 23:10:41;;;;;;;;;;;;;;;19.31;33.12;96139.38;10479073;28;1983;-61
2023/03/27 23:15:43;;;;;;;;;;;;;;;19.30;33.03;96142.28;10488504;28;1976;-61
2023/03/27 23:20:44;;;;;;;;;;;;;;;19.26;33.27;96142.00;10490164;28;2023;-61
2023/03/27 23:25:45;;;;;;;;;;;;;;;19.26;33.21;96144.63;10496580;28;2083;-61
2023/03/27 23:30:52;;;;;;;;;;;;;;;19.23;33.25;96145.13;10494723;28;1952;-61
2023/03/27 23:35:59;;;;;;;;;;;;;;;19.22;33.15;96161.97;10481234;28;1901;-61
2023/03/27 23:40:59;;;;;;;;;;;;;;;19.20;33.20;96164.06;10482033;28;2107;-61
2023/03/27 23:46:00;;;;;;;;;;;;;;;19.19;33.14;96159.84;10501233;28;1937;-61
2023/03/27 23:51:01;;;;;;;;;;;;;;;19.18;32.87;96168.78;10489522;28;1997;-61
2023/03/27 23:56:04;;;;;;;;;;;;;;;19.15;33.13;96171.09;10483392;28;1983;-61
